Time;durP1;ratioP1;P1;durP2;ratioP2;P2;SDS_P1;SDS_P2;PMS_P1;PMS_P2;Temp;Humidity;BMP_temperature;BMP_pressure;BME280_temperature;BME280_humidity;BME280_pressure;Samples;Min_cycle;Max_cycle;Signal;HPM_P1;HPM_P2
2021/03/07 00:00:08;;;;;;;;;;;;;;;-4.69;95.59;96635.97;1039338;28;19916;-61
2021/03/07 00:00:39;;;;;;;;;;;;;;;-4.72;95.25;96641.38;1035653;28;19921;-62
2021/03/07 00:01:09;;;;;;;;;;;;;;;-4.69;95.33;96640.25;1033620;28;20399;-62
2021/03/07 00:01:39;;;;;;;;;;;;;;;-4.74;95.28;96638.94;1033351;28;20320;-61
2021/03/07 00:02:10;;;;;;;;;;;;;;;-4.71;95.16;96644.75;1037555;28;19917;-61
2021/03/07 00:02:41;;;;;;;;;;;;;;;-4.70;95.48;96636.09;1039718;28;19918;-61
2021/03/07 00:03:11;;;;;;;;;;;;;;;-4.73;95.80;96639.75;1039633;28;19921;-61
2021/03/07 00:03:41;;;;;;;;;;;;;;;-4.72;96.16;96636.25;1038113;28;19919;-61
2021/03/07 00:04:12;;;;;;;;;;;;;;;-4.72;96.11;96635.47;1040908;28;19921;-62
2021/03/07 00:04:42;;;;;;;;;;;;;;;-4.74;95.96;96638.94;1035190;28;19921;-62
2021/03/07 00:05:12;;;;;;;;;;;;;;;-4.75;96.20;96636.56;1036608;28;19921;-60
2021/03/07 00:05:43;;;;;;;;;;;;;;;-4.75;96.09;96636.56;1029024;28;19954;-62
2021/03/07 00:06:13;;;;;;;;;;;;;;;-4.74;95.83;96627.91;1034190;28;19921;-61
2021/03/07 00:06:43;;;;;;;;;;;;;;;-4.70;95.96;96634.34;1031433;28;19922;-62
2021/03/07 00:07:14;;;;;;;;;;;;;;;-4.71;95.61;96637.88;1032314;28;19929;-60
2021/03/07 00:07:44;;;;;;;;;;;;;;;-4.69;96.14;96635.97;1029514;28;19918;-61
2021/03/07 00:08:15;;;;;;;;;;;;;;;-4.67;96.12;96634.06;1037268;28;20381;-61
2021/03/07 00:08:45;;;;;;;;;;;;;;;-4.65;95.92;96639.06;1042697;28;19920;-61
2021/03/07 00:09:15;;;;;;;;;;;;;;;-4.69;95.74;96627.47;1043374;28;19931;-61
2021/03/07 00:09:46;;;;;;;;;;;;;;;-4.72;95.67;96631.16;1039953;28;19930;-61
2021/03/07 00:10:17;;;;;;;;;;;;;;;-4.76;95.62;96629.84;1044096;28;19928;-62
2021/03/07 00:10:47;;;;;;;;;;;;;;;-4.71;95.48;96632.75;1039113;28;19924;-62
2021/03/07 00:11:17;;;;;;;;;;;;;;;-4.67;95.48;96628.13;1041397;28;19917;-61
2021/03/07 00:11:48;;;;;;;;;;;;;;;-4.68;95.17;96637.56;1035007;28;20020;-60
2021/03/07 00:12:18;;;;;;;;;;;;;;;-4.65;94.80;96631.38;1036279;28;20416;-61
2021/03/07 00:12:49;;;;;;;;;;;;;;;-4.63;94.72;96627.69;1043332;28;19921;-59
2021/03/07 00:13:20;;;;;;;;;;;;;;;-4.62;94.60;96634.44;1042985;28;19921;-62
2021/03/07 00:13:50;;;;;;;;;;;;;;;-4.65;94.84;96627.03;1045125;28;19955;-61
2021/03/07 00:14:20;;;;;;;;;;;;;;;-4.61;94.61;96633.47;1044711;28;20003;-60
2021/03/07 00:14:51;;;;;;;;;;;;;;;-4.62;94.32;96626.75;1045010;28;20576;-62
2021/03/07 00:15:22;;;;;;;;;;;;;;;-4.61;94.57;96627.56;1039533;28;19967;-62
2021/03/07 00:15:53;;;;;;;;;;;;;;;-4.62;94.50;96634.44;1039672;28;20017;-62
2021/03/07 00:16:23;;;;;;;;;;;;;;;-4.65;94.58;96637.28;1037657;28;19924;-62
2021/03/07 00:16:54;;;;;;;;;;;;;;;-4.68;94.75;96632.47;1037943;28;19913;-60
2021/03/07 00:17:24;;;;;;;;;;;;;;;-4.63;94.48;96634.56;1038860;28;19917;-61
2021/03/07 00:17:54;;;;;;;;;;;;;;;-4.67;94.42;96628.13;1039973;28;19925;-62
2021/03/07 00:18:25;;;;;;;;;;;;;;;-4.68;94.39;96629.09;1033713;28;19909;-62
2021/03/07 00:18:55;;;;;;;;;;;;;;;-4.67;94.48;96626.38;1038460;28;19913;-62
2021/03/07 00:19:25;;;;;;;;;;;;;;;-4.68;94.76;96626.53;1035417;28;19917;-62
2021/03/07 00:19:56;;;;;;;;;;;;;;;-4.68;94.95;96624.78;1033514;28;19972;-62
2021/03/07 00:20:26;;;;;;;;;;;;;;;-4.72;94.86;96626.03;1033898;28;20342;-61
2021/03/07 00:20:57;;;;;;;;;;;;;;;-4.73;94.63;96626.94;1034160;28;20004;-62
2021/03/07 00:21:27;;;;;;;;;;;;;;;-4.75;94.68;96628.88;1038802;28;19913;-62
2021/03/07 00:21:57;;;;;;;;;;;;;;;-4.73;94.92;96629.50;1044163;28;19913;-62
2021/03/07 00:22:28;;;;;;;;;;;;;;;-4.78;94.82;96621.47;1042211;28;19921;-59
2021/03/07 00:22:58;;;;;;;;;;;;;;;-4.76;94.90;96625.50;1038151;28;19913;-62
2021/03/07 00:23:29;;;;;;;;;;;;;;;-4.75;94.85;96621.19;1039292;28;20196;-62
2021/03/07 00:23:59;;;;;;;;;;;;;;;-4.76;94.87;96634.94;1035479;28;19995;-61
2021/03/07 00:24:29;;;;;;;;;;;;;;;-4.74;94.76;96623.59;1034993;28;20459;-60
2021/03/07 00:25:02;;;;;;;;;;;;;;;-4.74;94.53;96622.78;1037980;28;19921;-61
2021/03/07 00:25:33;;;;;;;;;;;;;;;-4.72;95.15;96626.03;1027312;28;19914;-62
2021/03/07 00:26:03;;;;;;;;;;;;;;;-4.71;95.12;96622.50;1028543;28;19922;-61
2021/03/07 00:26:34;;;;;;;;;;;;;;;-4.74;95.20;96627.91;1030290;28;19918;-60
2021/03/07 00:27:04;;;;;;;;;;;;;;;-4.78;94.94;96629.16;1029483;28;20012;-62
2021/03/07 00:27:34;;;;;;;;;;;;;;;-4.78;95.25;96629.16;1043773;28;19912;-62
2021/03/07 00:28:05;;;;;;;;;;;;;;;-4.79;94.98;96628.34;1039593;28;20302;-62
2021/03/07 00:28:35;;;;;;;;;;;;;;;-4.76;94.86;96627.28;1039740;28;20291;-62
2021/03/07 00:29:06;;;;;;;;;;;;;;;-4.79;94.85;96636.03;1037998;28;20008;-61
2021/03/07 00:29:36;;;;;;;;;;;;;;;-4.76;94.95;96628.06;1038290;28;19959;-62
2021/03/07 00:30:10;;;;;;;;;;;;;;;-4.69;94.88;96635.97;1039074;28;19921;-60
2021/03/07 00:30:41;;;;;;;;;;;;;;;-4.65;95.04;96627.03;1039841;28;19971;-62
2021/03/07 00:31:11;;;;;;;;;;;;;;;-4.65;94.52;96629.59;1033806;28;20594;-61
2021/03/07 00:31:42;;;;;;;;;;;;;;;-4.68;94.57;96624.78;1034760;28;20017;-62
2021/03/07 00:32:12;;;;;;;;;;;;;;;-4.85;94.36;96594.84;1039386;28;19944;-62
2021/03/07 00:32:43;;;;;;;;;;;;;;;-4.61;94.26;96625.00;1039993;28;20035;-62
2021/03/07 00:33:13;;;;;;;;;;;;;;;-4.64;94.36;96628.66;1039764;28;20080;-62
2021/03/07 00:33:43;;;;;;;;;;;;;;;-4.67;94.37;96626.38;1033003;28;19921;-61
2021/03/07 00:34:14;;;;;;;;;;;;;;;-4.62;94.25;96625.97;1035214;28;19927;-60
2021/03/07 00:34:44;;;;;;;;;;;;;;;-4.65;93.94;96624.50;1039801;28;19913;-62
2021/03/07 00:35:15;;;;;;;;;;;;;;;-4.67;94.30;96620.47;1037845;28;20740;-62
2021/03/07 00:35:45;;;;;;;;;;;;;;;-4.67;94.14;96621.25;1033720;28;20325;-61
2021/03/07 00:36:15;;;;;;;;;;;;;;;-4.66;94.31;96625.44;1034789;28;19921;-61
2021/03/07 00:36:46;;;;;;;;;;;;;;;-4.66;94.46;96624.63;1034109;28;20524;-61
2021/03/07 00:37:16;;;;;;;;;;;;;;;-4.65;94.65;96621.13;1034502;28;19928;-61
2021/03/07 00:37:46;;;;;;;;;;;;;;;-4.66;94.80;96620.31;1037548;28;20391;-61
2021/03/07 00:38:17;;;;;;;;;;;;;;;-4.69;94.77;96620.63;1039058;28;20040;-60
2021/03/07 00:38:47;;;;;;;;;;;;;;;-4.70;94.83;96628.41;1034937;28;19922;-62
2021/03/07 00:39:17;;;;;;;;;;;;;;;-4.74;94.58;96617.66;1039195;28;19917;-61
2021/03/07 00:39:56;;;;;;;;;;;;;;;-4.77;94.59;96630.75;1037228;28;19921;-62
2021/03/07 00:40:27;;;;;;;;;;;;;;;-4.72;94.88;96620.91;1035930;28;20419;-61
2021/03/07 00:40:57;;;;;;;;;;;;;;;-4.70;94.99;96623.31;1039860;28;19928;-62
2021/03/07 00:41:28;;;;;;;;;;;;;;;-4.67;94.57;96623.81;1038223;28;19921;-62
2021/03/07 00:41:59;;;;;;;;;;;;;;;-4.64;94.35;96627.84;1038468;28;20032;-60
2021/03/07 00:42:29;;;;;;;;;;;;;;;-4.68;94.41;96626.53;1039190;28;20445;-61
2021/03/07 00:42:59;;;;;;;;;;;;;;;-4.64;94.59;96626.09;1039440;28;20551;-62
2021/03/07 00:43:30;;;;;;;;;;;;;;;-4.62;94.54;96631.88;1038688;28;20000;-60
2021/03/07 00:44:00;;;;;;;;;;;;;;;-4.64;94.69;96620.97;1037015;28;19946;-62
2021/03/07 00:44:30;;;;;;;;;;;;;;;-4.62;94.66;96631.88;1043495;28;20302;-61
2021/03/07 00:45:01;;;;;;;;;;;;;;;-4.65;94.66;96621.94;1035335;28;19989;-61
2021/03/07 00:45:33;;;;;;;;;;;;;;;-4.68;94.54;96627.34;1030797;28;19959;-60
2021/03/07 00:46:04;;;;;;;;;;;;;;;-4.70;94.46;96626.66;1029075;28;19920;-62
2021/03/07 00:46:37;;;;;;;;;;;;;;;-4.69;94.46;96624.91;1027761;28;19972;-61
2021/03/07 00:47:07;;;;;;;;;;;;;;;-4.70;94.38;96624.09;1031070;28;19913;-62
2021/03/07 00:47:38;;;;;;;;;;;;;;;-4.64;94.37;96622.72;1034307;28;19918;-62
2021/03/07 00:48:08;;;;;;;;;;;;;;;-4.63;94.44;96622.56;1029937;28;20069;-60
2021/03/07 00:48:39;;;;;;;;;;;;;;;-4.66;94.30;96619.50;1034467;28;19956;-61
2021/03/07 00:49:10;;;;;;;;;;;;;;;-4.64;94.25;96620.16;1035280;28;19917;-61
2021/03/07 00:49:40;;;;;;;;;;;;;;;-4.69;94.46;96615.50;1031305;28;20016;-61
2021/03/07 00:50:14;;;;;;;;;;;;;;;-4.68;94.51;96622.22;1026905;28;19918;-62
2021/03/07 00:50:44;;;;;;;;;;;;;;;-4.73;94.61;96619.28;1019668;29;19918;-62
2021/03/07 00:51:15;;;;;;;;;;;;;;;-4.70;94.72;96623.31;1023038;28;19922;-61
2021/03/07 00:51:45;;;;;;;;;;;;;;;-4.72;94.60;96623.47;1023235;28;19973;-61
2021/03/07 00:52:16;;;;;;;;;;;;;;;-4.75;94.86;96622.00;1029510;28;19968;-62
2021/03/07 00:52:46;;;;;;;;;;;;;;;-4.79;95.05;96619.88;1038965;28;19925;-63
2021/03/07 00:53:16;;;;;;;;;;;;;;;-4.80;95.53;96628.47;1035380;28;19948;-62
2021/03/07 00:53:47;;;;;;;;;;;;;;;-4.80;95.76;96623.38;1031511;28;20439;-62
2021/03/07 00:54:18;;;;;;;;;;;;;;;-4.79;95.63;96625.78;1028743;28;19921;-62
2021/03/07 00:54:48;;;;;;;;;;;;;;;-4.80;95.74;96623.38;1030394;28;19964;-62
2021/03/07 00:55:19;;;;;;;;;;;;;;;-4.82;95.46;96615.03;1026949;28;19994;-61
2021/03/07 00:55:49;;;;;;;;;;;;;;;-4.81;95.64;96617.44;1030871;28;19940;-62
2021/03/07 00:56:20;;;;;;;;;;;;;;;-4.82;95.63;96617.59;1029901;28;19914;-61
2021/03/07 00:56:53;;;;;;;;;;;;;;;-4.78;95.61;96613.81;1030212;28;19918;-61
2021/03/07 00:57:24;;;;;;;;;;;;;;;-4.79;95.41;96612.19;1034072;28;19921;-61
2021/03/07 00:57:54;;;;;;;;;;;;;;;-4.76;95.27;96617.03;1035503;28;19959;-61
2021/03/07 00:58:25;;;;;;;;;;;;;;;-4.74;95.08;96620.22;1032700;28;19981;-60
2021/03/07 00:58:55;;;;;;;;;;;;;;;-4.76;95.14;96617.03;1034973;28;19923;-61
2021/03/07 00:59:26;;;;;;;;;;;;;;;-4.79;95.14;96609.63;1042432;28;19917;-62
2021/03/07 00:59:56;;;;;;;;;;;;;;;-4.78;95.13;96613.81;1039944;28;19913;-61
2021/03/07 01:00:27;;;;;;;;;;;;;;;-4.74;94.99;96615.09;1037429;28;19987;-60
2021/03/07 01:00:57;;;;;;;;;;;;;;;-4.76;94.91;96614.47;1036915;28;19920;-62
2021/03/07 01:01:28;;;;;;;;;;;;;;;-4.78;94.62;96617.16;1035386;28;20532;-62
2021/03/07 01:01:58;;;;;;;;;;;;;;;-4.75;94.57;96614.31;1035510;28;20700;-62
2021/03/07 01:02:28;;;;;;;;;;;;;;;-4.77;94.50;96612.84;1033010;28;19949;-62
2021/03/07 01:02:59;;;;;;;;;;;;;;;-4.76;94.70;96617.03;1034538;28;19917;-61
2021/03/07 01:03:29;;;;;;;;;;;;;;;-4.75;94.61;96616.06;1039108;28;19921;-62
2021/03/07 01:04:00;;;;;;;;;;;;;;;-4.73;94.58;96614.16;1039636;28;19913;-62
2021/03/07 01:04:30;;;;;;;;;;;;;;;-4.75;94.68;96610.94;1029571;28;19914;-60
2021/03/07 01:05:00;;;;;;;;;;;;;;;-4.75;94.64;96613.50;1034076;28;20452;-61
2021/03/07 01:05:31;;;;;;;;;;;;;;;-4.77;95.02;96612.84;1035017;28;20837;-62
2021/03/07 01:06:01;;;;;;;;;;;;;;;-4.72;94.61;96613.22;1031262;28;19914;-62
2021/03/07 01:06:32;;;;;;;;;;;;;;;-4.75;94.51;96610.94;1033780;28;19968;-60
2021/03/07 01:07:02;;;;;;;;;;;;;;;-4.73;94.17;96609.03;1029350;28;20545;-61
2021/03/07 01:07:33;;;;;;;;;;;;;;;-4.73;94.02;96609.03;1030167;28;19918;-62
2021/03/07 01:08:03;;;;;;;;;;;;;;;-4.71;93.98;96609.69;1035568;28;20081;-62
2021/03/07 01:08:34;;;;;;;;;;;;;;;-4.72;93.87;96613.22;1034939;28;19924;-61
2021/03/07 01:09:04;;;;;;;;;;;;;;;-4.61;93.20;96607.88;1037358;28;20606;-62
2021/03/07 01:09:35;;;;;;;;;;;;;;;-4.62;92.78;96611.41;1038804;28;19914;-61
2021/03/07 01:10:25;;;;;;;;;;;;;;;-4.64;92.77;96610.72;1039855;28;19916;-62
2021/03/07 01:10:55;;;;;;;;;;;;;;;-4.57;92.29;96606.63;1034942;28;20838;-62
2021/03/07 01:11:26;;;;;;;;;;;;;;;-4.59;92.38;96608.53;1039263;28;19983;-61
2021/03/07 01:11:56;;;;;;;;;;;;;;;-4.61;92.68;96605.31;1031095;28;20020;-61
2021/03/07 01:12:26;;;;;;;;;;;;;;;-4.65;92.47;96606.56;1031334;28;19964;-60
2021/03/07 01:12:57;;;;;;;;;;;;;;;-4.64;92.71;96603.03;1024181;28;19914;-61
2021/03/07 01:13:27;;;;;;;;;;;;;;;-4.63;92.63;96606.41;1022645;28;19922;-62
2021/03/07 01:13:58;;;;;;;;;;;;;;;-4.63;92.54;96604.66;1035481;28;19914;-62
2021/03/07 01:14:28;;;;;;;;;;;;;;;-4.65;92.64;96606.56;1031341;28;19910;-62
2021/03/07 01:14:58;;;;;;;;;;;;;;;-4.64;92.50;96608.16;1033566;28;19941;-61
2021/03/07 01:15:29;;;;;;;;;;;;;;;-4.65;92.50;96601.44;1038406;28;19925;-62
2021/03/07 01:15:59;;;;;;;;;;;;;;;-4.68;92.42;96601.72;1038394;28;20387;-63
2021/03/07 01:16:30;;;;;;;;;;;;;;;-4.66;92.85;96606.69;1040024;28;20379;-62
2021/03/07 01:17:00;;;;;;;;;;;;;;;-4.66;92.72;96604.13;1037982;28;19945;-60
2021/03/07 01:17:30;;;;;;;;;;;;;;;-4.69;92.67;96601.88;1037231;28;19914;-62
2021/03/07 01:18:01;;;;;;;;;;;;;;;-4.70;92.78;96595.16;1038528;28;19921;-61
2021/03/07 01:18:31;;;;;;;;;;;;;;;-4.71;92.51;96594.34;1039678;28;19943;-62
2021/03/07 01:19:02;;;;;;;;;;;;;;;-4.69;92.36;96595.00;1038501;28;19921;-61
2021/03/07 01:19:33;;;;;;;;;;;;;;;-4.73;92.25;96598.78;1041788;28;19924;-60
2021/03/07 01:20:07;;;;;;;;;;;;;;;-4.73;92.50;96603.91;1043387;28;19921;-62
2021/03/07 01:20:38;;;;;;;;;;;;;;;-4.76;92.45;96594.78;1044387;28;19916;-61
2021/03/07 01:21:09;;;;;;;;;;;;;;;-4.78;92.70;96590.75;1039026;28;19939;-62
2021/03/07 01:21:39;;;;;;;;;;;;;;;-4.77;92.65;96592.34;1036627;28;20453;-61
2021/03/07 01:22:10;;;;;;;;;;;;;;;-4.77;92.85;96592.34;1034895;28;20335;-62
2021/03/07 01:22:40;;;;;;;;;;;;;;;-4.75;93.14;96587.91;1035419;28;20067;-62
2021/03/07 01:23:11;;;;;;;;;;;;;;;-4.68;92.67;96590.69;1035036;28;20003;-62
2021/03/07 01:23:41;;;;;;;;;;;;;;;-4.69;92.68;96587.34;1028897;28;20016;-61
2021/03/07 01:24:11;;;;;;;;;;;;;;;-4.68;92.46;96591.50;1034432;28;20004;-62
2021/03/07 01:24:42;;;;;;;;;;;;;;;-4.70;92.46;96593.38;1034097;28;19921;-62
2021/03/07 01:25:13;;;;;;;;;;;;;;;-4.71;92.54;96588.44;1038831;28;19909;-64
2021/03/07 01:25:43;;;;;;;;;;;;;;;-4.70;92.19;96583.16;1033234;28;20304;-62
2021/03/07 01:26:13;;;;;;;;;;;;;;;-4.68;92.10;96580.44;1037556;28;20600;-61
2021/03/07 01:26:44;;;;;;;;;;;;;;;-4.72;92.14;96585.06;1038712;28;20457;-61
2021/03/07 01:27:14;;;;;;;;;;;;;;;-4.71;92.16;96583.31;1037270;28;19924;-62
2021/03/07 01:27:44;;;;;;;;;;;;;;;-4.75;92.23;96580.22;1036749;28;19961;-61
2021/03/07 01:28:15;;;;;;;;;;;;;;;-4.75;92.42;96581.03;1038574;28;19909;-61
2021/03/07 01:28:45;;;;;;;;;;;;;;;-4.72;93.32;96582.50;1038666;28;19999;-60
2021/03/07 01:29:16;;;;;;;;;;;;;;;-4.74;93.33;96574.16;1039873;28;19909;-61
2021/03/07 01:29:46;;;;;;;;;;;;;;;-4.77;93.42;96582.13;1036674;28;19913;-61
2021/03/07 01:30:17;;;;;;;;;;;;;;;-4.82;93.27;96577.44;1038995;28;19931;-62
2021/03/07 01:30:47;;;;;;;;;;;;;;;-4.83;93.25;96578.41;1038887;28;19944;-62
2021/03/07 01:31:17;;;;;;;;;;;;;;;-4.85;93.00;96574.38;1039438;28;19917;-62
2021/03/07 01:31:48;;;;;;;;;;;;;;;-4.82;92.85;96574.88;1033757;28;19910;-62
2021/03/07 01:32:18;;;;;;;;;;;;;;;-4.83;92.77;96580.13;1029529;28;19917;-62
2021/03/07 01:32:49;;;;;;;;;;;;;;;-4.86;92.68;96576.13;1035103;28;19940;-62
2021/03/07 01:33:19;;;;;;;;;;;;;;;-4.89;92.82;96579.00;1031596;28;19917;-62
2021/03/07 01:33:49;;;;;;;;;;;;;;;-4.88;93.39;96578.03;1030740;28;19909;-61
2021/03/07 01:34:19;;;;;;;;;;;;;;;-4.88;93.57;96580.59;1029313;28;19921;-62
2021/03/07 01:34:50;;;;;;;;;;;;;;;-4.89;93.44;96575.63;1031711;28;19973;-62
2021/03/07 01:35:22;;;;;;;;;;;;;;;-4.84;93.55;96578.53;1039396;28;19913;-63
2021/03/07 01:35:52;;;;;;;;;;;;;;;-4.88;93.83;96579.78;1034800;28;20000;-60
2021/03/07 01:36:23;;;;;;;;;;;;;;;-4.90;93.96;96579.13;1037258;28;19913;-62
2021/03/07 01:36:53;;;;;;;;;;;;;;;-4.90;93.96;96576.56;1038265;28;19917;-61
2021/03/07 01:37:23;;;;;;;;;;;;;;;-4.88;94.09;96580.59;1039391;28;19913;-62
2021/03/07 01:37:54;;;;;;;;;;;;;;;-4.91;94.34;96580.88;1042646;28;20018;-61
2021/03/07 01:38:24;;;;;;;;;;;;;;;-4.91;94.54;96572.41;1033154;28;19909;-62
2021/03/07 01:38:55;;;;;;;;;;;;;;;-4.93;94.33;96577.66;1030734;28;19925;-62
2021/03/07 01:39:25;;;;;;;;;;;;;;;-4.94;94.41;96575.25;1027385;28;19997;-62
2021/03/07 01:39:56;;;;;;;;;;;;;;;-5.05;94.32;96558.34;1026318;28;20020;-60
2021/03/07 01:40:34;;;;;;;;;;;;;;;-4.97;94.46;96577.13;1033392;28;19909;-62
2021/03/07 01:41:04;;;;;;;;;;;;;;;-4.92;94.46;96568.25;1039108;28;19956;-62
2021/03/07 01:41:35;;;;;;;;;;;;;;;-4.91;94.22;96569.84;1040020;28;20375;-60
2021/03/07 01:42:11;;;;;;;;;;;;;;;-4.93;94.12;96566.59;1038210;28;19910;-61
2021/03/07 01:42:46;;;;;;;;;;;;;;;-4.93;94.07;96569.16;1033940;28;19914;-62
2021/03/07 01:43:16;;;;;;;;;;;;;;;-4.91;94.12;96569.84;1034532;28;19909;-62
2021/03/07 01:43:47;;;;;;;;;;;;;;;-4.89;93.98;96568.75;1031570;28;19910;-60
2021/03/07 01:44:17;;;;;;;;;;;;;;;-4.93;93.87;96564.06;1031324;28;19919;-61
2021/03/07 01:44:47;;;;;;;;;;;;;;;-4.92;93.94;96565.69;1033327;28;19913;-65
2021/03/07 01:45:19;;;;;;;;;;;;;;;-4.89;93.96;96562.84;1034650;28;19921;-62
2021/03/07 01:45:49;;;;;;;;;;;;;;;-4.90;93.76;96564.56;1039735;28;20311;-62
2021/03/07 01:46:20;;;;;;;;;;;;;;;-4.90;93.70;96558.66;1037573;28;19920;-61
2021/03/07 01:46:50;;;;;;;;;;;;;;;-4.90;94.00;96561.19;1038024;28;19914;-62
2021/03/07 01:47:25;;;;;;;;;;;;;;;-4.91;93.97;96569.84;1038196;28;19909;-62
2021/03/07 01:47:56;;;;;;;;;;;;;;;-4.94;93.95;96554.78;1039756;28;19979;-62
2021/03/07 01:48:27;;;;;;;;;;;;;;;-4.94;94.08;96559.88;1032210;28;19924;-61
2021/03/07 01:48:57;;;;;;;;;;;;;;;-4.93;93.88;96557.16;1029832;28;20013;-61
2021/03/07 01:49:27;;;;;;;;;;;;;;;-4.93;93.86;96561.50;1031122;28;20486;-62
2021/03/07 01:49:58;;;;;;;;;;;;;;;-4.94;93.60;96554.78;1031370;28;20423;-62
2021/03/07 01:50:29;;;;;;;;;;;;;;;-4.95;93.78;96559.09;1037539;28;19925;-60
2021/03/07 01:50:59;;;;;;;;;;;;;;;-4.94;93.86;96554.78;1034422;28;19917;-62
2021/03/07 01:51:30;;;;;;;;;;;;;;;-4.95;93.79;96553.97;1030586;28;20595;-61
2021/03/07 01:52:00;;;;;;;;;;;;;;;-4.97;93.86;96553.31;1029868;28;19920;-61
2021/03/07 01:52:30;;;;;;;;;;;;;;;-4.98;93.92;96554.25;1029802;28;19917;-62
2021/03/07 01:53:01;;;;;;;;;;;;;;;-4.97;93.96;96548.97;1029640;28;19914;-63
2021/03/07 01:53:31;;;;;;;;;;;;;;;-4.98;94.40;96549.94;1026120;28;20421;-62
2021/03/07 01:54:02;;;;;;;;;;;;;;;-5.01;94.70;96555.34;1031526;28;20392;-62
2021/03/07 01:54:35;;;;;;;;;;;;;;;-5.01;94.85;96547.66;1025649;28;19921;-62
2021/03/07 01:55:06;;;;;;;;;;;;;;;-5.05;94.60;96548.13;1026569;28;19978;-59
2021/03/07 01:55:36;;;;;;;;;;;;;;;-5.05;95.00;96548.91;1026595;28;19929;-62
2021/03/07 01:56:07;;;;;;;;;;;;;;;-5.04;95.10;96549.72;1024114;28;20458;-62
2021/03/07 01:56:38;;;;;;;;;;;;;;;-5.06;95.08;96546.50;1025530;28;19929;-61
2021/03/07 01:57:08;;;;;;;;;;;;;;;-5.09;95.14;96539.13;1025269;28;19925;-62
2021/03/07 01:57:39;;;;;;;;;;;;;;;-5.09;95.29;96537.38;1031270;28;19914;-62
2021/03/07 01:58:11;;;;;;;;;;;;;;;-5.11;95.50;96544.38;1031465;28;20260;-62
2021/03/07 01:58:41;;;;;;;;;;;;;;;-5.16;95.67;96544.03;1030321;28;19987;-61
2021/03/07 01:59:12;;;;;;;;;;;;;;;-5.13;95.66;96540.34;1034981;28;20575;-62
2021/03/07 01:59:42;;;;;;;;;;;;;;;-5.15;95.64;96543.06;1031866;28;19981;-61
2021/03/07 02:00:13;;;;;;;;;;;;;;;-5.14;95.78;96541.31;1031476;28;20323;-61
2021/03/07 02:00:43;;;;;;;;;;;;;;;-5.15;95.72;96537.94;1024438;28;19918;-61
2021/03/07 02:01:14;;;;;;;;;;;;;;;-5.14;95.92;96529.31;1034640;28;19930;-61
2021/03/07 02:01:44;;;;;;;;;;;;;;;-5.17;95.76;96534.72;1031352;28;19922;-62
2021/03/07 02:02:14;;;;;;;;;;;;;;;-5.18;96.00;96533.13;1026702;28;19922;-61
2021/03/07 02:02:45;;;;;;;;;;;;;;;-5.15;96.28;96537.16;1024572;28;20013;-62
2021/03/07 02:03:15;;;;;;;;;;;;;;;-5.14;96.32;96536.97;1030762;28;19932;-61
2021/03/07 02:03:51;;;;;;;;;;;;;;;-5.13;96.00;96530.94;1030300;28;19913;-62
2021/03/07 02:04:22;;;;;;;;;;;;;;;-5.14;96.15;96533.63;1028458;28;19943;-62
2021/03/07 02:04:53;;;;;;;;;;;;;;;-5.13;95.94;96535.22;1021457;28;20293;-59
2021/03/07 02:05:23;;;;;;;;;;;;;;;-5.17;96.22;96531.34;1022711;29;19923;-62
2021/03/07 02:05:53;;;;;;;;;;;;;;;-5.17;96.11;96533.91;1022642;28;19926;-60
2021/03/07 02:06:24;;;;;;;;;;;;;;;-5.19;96.25;96536.63;1023477;28;19914;-62
2021/03/07 02:06:54;;;;;;;;;;;;;;;-5.19;96.61;96528.97;1029379;28;20411;-61
2021/03/07 02:07:24;;;;;;;;;;;;;;;-5.19;97.05;96531.50;1033281;28;19914;-62
2021/03/07 02:07:55;;;;;;;;;;;;;;;-5.18;97.37;96533.13;1034862;28;19941;-61
2021/03/07 02:08:25;;;;;;;;;;;;;;;-5.18;97.16;96527.19;1036131;28;19925;-62
2021/03/07 02:08:56;;;;;;;;;;;;;;;-5.19;96.91;96533.28;1033363;28;19921;-60
2021/03/07 02:09:26;;;;;;;;;;;;;;;-5.18;97.02;96538.22;1034728;28;19952;-63
2021/03/07 02:09:56;;;;;;;;;;;;;;;-5.17;97.03;96529.59;1035423;28;20528;-62
2021/03/07 02:10:27;;;;;;;;;;;;;;;-5.20;97.14;96537.56;1035329;28;19924;-62
2021/03/07 02:10:59;;;;;;;;;;;;;;;-5.22;97.24;96531.81;1028164;28;20331;-60
2021/03/07 02:11:30;;;;;;;;;;;;;;;-5.26;97.41;96530.47;1030885;28;19924;-61
2021/03/07 02:12:00;;;;;;;;;;;;;;;-5.26;97.47;96535.59;1027275;28;20569;-62
2021/03/07 02:12:30;;;;;;;;;;;;;;;-5.29;97.73;96531.56;1025138;28;20390;-62
2021/03/07 02:13:24;;;;;;;;;;;;;;;-5.28;97.61;96532.38;1025510;28;20008;-61
2021/03/07 02:13:54;;;;;;;;;;;;;;;-5.32;97.68;96531.06;1028165;28;19918;-60
2021/03/07 02:14:25;;;;;;;;;;;;;;;-5.33;97.74;96525.16;1035781;28;20354;-62
2021/03/07 02:14:56;;;;;;;;;;;;;;;-5.34;97.95;96532.94;1031088;28;19924;-60
2021/03/07 02:15:27;;;;;;;;;;;;;;;-5.35;98.16;96524.47;1028734;28;19918;-61
2021/03/07 02:15:58;;;;;;;;;;;;;;;-5.37;98.02;96533.22;1027799;28;19918;-61
2021/03/07 02:16:29;;;;;;;;;;;;;;;-5.39;98.17;96530.03;1031763;28;20294;-62
2021/03/07 02:16:59;;;;;;;;;;;;;;;-5.40;98.19;96524.09;1035189;28;19914;-60
2021/03/07 02:17:29;;;;;;;;;;;;;;;-5.66;98.13;96492.50;1030809;28;19924;-60
2021/03/07 02:18:00;;;;;;;;;;;;;;;-5.47;98.25;96528.16;1034782;28;19949;-61
2021/03/07 02:18:36;;;;;;;;;;;;;;;-5.49;98.32;96528.31;1034858;28;19913;-62
2021/03/07 02:19:08;;;;;;;;;;;;;;;-5.51;98.40;96529.41;1033061;28;19914;-62
2021/03/07 02:19:38;;;;;;;;;;;;;;;-5.52;98.56;96528.59;1030113;28;19932;-61
2021/03/07 02:20:09;;;;;;;;;;;;;;;-5.53;98.84;96526.19;1031448;28;19913;-61
2021/03/07 02:20:55;;;;;;;;;;;;;;;-5.57;98.65;96522.28;1031885;28;20442;-62
2021/03/07 02:21:31;;;;;;;;;;;;;;;-5.61;98.69;96529.44;1027515;28;19906;-62
2021/03/07 02:22:02;;;;;;;;;;;;;;;-5.64;98.54;96524.63;1033630;28;20805;-61
2021/03/07 02:22:40;;;;;;;;;;;;;;;-5.66;98.60;96523.16;1039682;28;19925;-62
2021/03/07 02:23:16;;;;;;;;;;;;;;;-5.69;98.73;96526.81;1036398;28;19957;-61
2021/03/07 02:23:52;;;;;;;;;;;;;;;-5.70;99.04;96525.19;1033775;28;19914;-60
2021/03/07 02:24:22;;;;;;;;;;;;;;;-5.69;99.15;96519.13;1032591;28;20014;-61
2021/03/07 02:24:53;;;;;;;;;;;;;;;-5.68;99.61;96523.28;1034070;28;19917;-62
2021/03/07 02:25:23;;;;;;;;;;;;;;;-5.67;99.88;96522.34;1028113;28;19997;-61
2021/03/07 02:25:54;;;;;;;;;;;;;;;-5.70;99.73;96522.63;1026729;28;19931;-61
2021/03/07 02:26:24;;;;;;;;;;;;;;;-5.64;99.99;96524.63;1031659;28;20360;-62
2021/03/07 02:26:55;;;;;;;;;;;;;;;-5.62;100.00;96520.19;1032070;28;20017;-62
2021/03/07 02:27:25;;;;;;;;;;;;;;;-5.59;100.00;96522.44;1039398;28;19917;-61
2021/03/07 02:27:56;;;;;;;;;;;;;;;-5.55;100.00;96526.31;1035852;28;19936;-60
2021/03/07 02:28:26;;;;;;;;;;;;;;;-5.52;100.00;96522.69;1035498;28;19917;-62
2021/03/07 02:28:57;;;;;;;;;;;;;;;-5.53;100.00;96523.66;1032075;28;20017;-62
2021/03/07 02:29:27;;;;;;;;;;;;;;;-5.56;100.00;96522.16;1029061;28;19910;-62
2021/03/07 02:29:57;;;;;;;;;;;;;;;-5.77;100.00;96489.19;1025276;28;19929;-60
2021/03/07 02:30:28;;;;;;;;;;;;;;;-5.56;100.00;96521.38;1031577;28;19914;-61
2021/03/07 02:30:58;;;;;;;;;;;;;;;-5.56;100.00;96523.94;1031612;28;19924;-62
2021/03/07 02:31:28;;;;;;;;;;;;;;;-5.62;100.00;96525.28;1036133;28;19917;-62
2021/03/07 02:32:06;;;;;;;;;;;;;;;-5.61;100.00;96516.66;1026875;28;20002;-60
2021/03/07 02:32:37;;;;;;;;;;;;;;;-5.66;100.00;96518.88;1028060;28;20019;-62
2021/03/07 02:33:27;;;;;;;;;;;;;;;-5.66;100.00;96520.63;1031978;28;19956;-62
2021/03/07 02:33:58;;;;;;;;;;;;;;;-5.70;100.00;96517.50;1035668;28;19917;-62
2021/03/07 02:34:32;;;;;;;;;;;;;;;-5.70;100.00;96522.63;1037229;28;19928;-60
2021/03/07 02:35:04;;;;;;;;;;;;;;;-5.74;100.00;96518.75;1034809;28;20027;-61
2021/03/07 02:35:37;;;;;;;;;;;;;;;-5.75;100.00;96520.50;1031886;28;19917;-62
2021/03/07 02:36:09;;;;;;;;;;;;;;;-5.77;100.00;96521.59;1026393;28;19944;-60
2021/03/07 02:36:41;;;;;;;;;;;;;;;-5.80;100.00;96517.59;1019728;28;19919;-62
2021/03/07 02:37:11;;;;;;;;;;;;;;;-5.82;100.00;96527.13;1027972;28;19926;-62
2021/03/07 02:37:44;;;;;;;;;;;;;;;-5.84;100.00;96523.91;1024627;28;20384;-62
2021/03/07 02:38:16;;;;;;;;;;;;;;;-5.86;100.00;96523.25;1030487;28;19921;-61
2021/03/07 02:38:46;;;;;;;;;;;;;;;-5.86;100.00;96517.34;1030173;28;19924;-60
2021/03/07 02:39:17;;;;;;;;;;;;;;;-5.88;100.00;96526.88;1032045;28;19926;-62
2021/03/07 02:39:48;;;;;;;;;;;;;;;-5.90;100.00;96521.09;1029770;28;19965;-62
2021/03/07 02:40:19;;;;;;;;;;;;;;;-5.93;100.00;96519.69;1031910;28;19914;-62
2021/03/07 02:40:49;;;;;;;;;;;;;;;-5.96;100.00;96518.22;1025249;28;19922;-61
2021/03/07 02:41:20;;;;;;;;;;;;;;;-5.97;100.00;96516.59;1026975;28;19940;-62